Time;durP1;ratioP1;P1;durP2;ratioP2;P2;SDS_P1;SDS_P2;PMS_P1;PMS_P2;Temp;Humidity;BMP_temperature;BMP_pressure;BME280_temperature;BME280_humidity;BME280_pressure;Samples;Min_cycle;Max_cycle;Signal;HPM_P1;HPM_P2
2023/08/29 00:01:07;;;;;;;43.73;6.00;;;13.70;1.00;;;;;;5037469;28;20517;-78
2023/08/29 00:03:56;;;;;;;41.17;5.73;;;13.70;1.00;;;;;;5027639;28;20497;-78
2023/08/29 00:06:29;;;;;;;40.13;5.57;;;13.80;1.00;;;;;;5025430;28;20193;-78
2023/08/29 00:09:05;;;;;;;41.47;5.43;;;13.80;1.00;;;;;;5026875;28;20455;-77
2023/08/29 00:11:53;;;;;;;37.50;5.40;;;13.80;1.00;;;;;;5021839;28;20968;-78
2023/08/29 00:14:19;;;;;;;36.80;5.40;;;13.80;1.00;;;;;;5021351;28;20409;-78
2023/08/29 00:16:44;;;;;;;40.43;5.73;;;13.80;1.00;;;;;;5018114;28;20780;-78
2023/08/29 00:19:10;;;;;;;37.37;5.30;;;13.80;1.00;;;;;;5021058;28;20188;-78
2023/08/29 00:21:53;;;;;;;37.03;5.20;;;13.80;1.00;;;;;;5026867;28;20243;-78
2023/08/29 00:24:19;;;;;;;39.20;5.43;;;13.90;1.00;;;;;;5045832;28;20185;-78
2023/08/29 00:26:47;;;;;;;40.60;5.10;;;13.90;1.00;;;;;;5025822;28;20441;-78
2023/08/29 00:29:35;;;;;;;39.70;5.50;;;13.80;1.00;;;;;;5026236;28;21018;-78
2023/08/29 00:32:01;;;;;;;37.20;5.43;;;13.80;1.00;;;;;;5024387;28;20434;-78
2023/08/29 00:34:29;;;;;;;35.73;5.77;;;13.90;1.00;;;;;;5027792;28;21039;-77
2023/08/29 00:36:56;;;;;;;39.03;5.97;;;13.90;1.00;;;;;;5044833;28;20546;-78
2023/08/29 00:39:59;;;;;;;36.87;5.47;;;14.00;1.00;;;;;;5030427;28;20482;-78
2023/08/29 00:42:29;;;;;;;40.33;5.17;;;14.00;1.00;;;;;;5020057;28;20412;-77
2023/08/29 00:44:55;;;;;;;37.17;5.40;;;14.00;1.00;;;;;;5033378;28;20426;-78
2023/08/29 00:47:36;;;;;;;36.27;5.63;;;14.00;1.00;;;;;;5020679;28;20427;-78
2023/08/29 00:50:11;;;;;;;39.73;5.30;;;14.10;1.00;;;;;;5015818;28;20204;-78
2023/08/29 00:53:23;;;;;;;36.60;4.93;;;14.10;1.00;;;;;;5027486;28;20934;-78
2023/08/29 00:55:49;;;;;;;36.57;5.00;;;14.20;1.00;;;;;;5031246;28;20423;-78
2023/08/29 00:58:47;;;;;;;40.57;5.93;;;14.40;1.00;;;;;;5028710;28;20917;-77
2023/08/29 01:01:15;;;;;;;37.47;5.23;;;14.30;1.00;;;;;;5032128;28;20435;-78
2023/08/29 01:04:29;;;;;;;38.70;5.00;;;14.40;1.00;;;;;;5020093;28;20506;-78
2023/08/29 01:06:59;;;;;;;40.90;5.23;;;14.40;1.00;;;;;;5016635;28;20445;-78
2023/08/29 01:09:30;;;;;;;35.10;4.93;;;14.50;1.00;;;;;;5028675;28;20455;-80
2023/08/29 01:12:30;;;;;;;38.60;5.57;;;14.60;1.00;;;;;;5030714;28;21040;-80
2023/08/29 01:15:05;;;;;;;45.43;4.30;;;14.60;1.00;;;;;;5019680;28;20482;-80
2023/08/29 01:17:44;;;;;;;37.93;4.60;;;14.70;1.00;;;;;;5027667;28;20422;-80
2023/08/29 01:20:13;;;;;;;35.90;3.87;;;14.70;1.00;;;;;;5015533;28;20439;-80
2023/08/29 01:23:06;;;;;;;35.00;4.17;;;14.80;1.00;;;;;;5030468;28;20450;-80
2023/08/29 01:26:11;;;;;;;38.03;3.80;;;14.80;1.00;;;;;;5018559;28;20409;-80
2023/08/29 01:28:44;;;;;;;34.93;4.07;;;14.90;1.00;;;;;;5019751;28;20463;-80
2023/08/29 01:31:13;;;;;;;37.43;3.93;;;14.90;1.00;;;;;;5034294;28;20430;-80
2023/08/29 01:33:40;;;;;;;37.80;4.23;;;14.90;1.00;;;;;;5032540;28;20405;-80
2023/08/29 01:36:06;;;;;;;34.23;3.67;;;14.90;1.00;;;;;;5035534;28;20427;-81
2023/08/29 01:38:53;;;;;;;36.83;3.90;;;15.00;1.00;;;;;;5026481;28;20973;-80
2023/08/29 01:41:29;;;;;;;34.10;3.70;;;15.00;1.00;;;;;;5025554;28;20968;-81
2023/08/29 01:44:17;;;;;;;33.80;3.37;;;15.00;1.00;;;;;;5030256;28;20779;-82
2023/08/29 01:47:05;;;;;;;40.30;3.77;;;15.00;1.00;;;;;;5026152;28;20454;-80
2023/08/29 01:49:33;;;;;;;32.37;3.20;;;15.10;1.00;;;;;;5026881;28;20463;-81
2023/08/29 01:52:06;;;;;;;33.20;3.67;;;15.10;1.00;;;;;;5035387;28;20474;-81
2023/08/29 01:54:48;;;;;;;34.33;3.30;;;15.10;1.00;;;;;;5023467;28;20435;-77
2023/08/29 01:57:19;;;;;;;33.43;3.20;;;15.20;1.00;;;;;;5029925;28;20406;-78
2023/08/29 01:59:46;;;;;;;33.93;3.70;;;15.20;1.00;;;;;;5019260;28;20818;-78
2023/08/29 02:02:18;;;;;;;33.70;3.73;;;15.30;1.00;;;;;;5021776;28;20441;-77
2023/08/29 02:04:43;;;;;;;33.30;3.40;;;15.30;1.00;;;;;;5022955;28;20446;-78
2023/08/29 02:07:17;;;;;;;35.30;3.50;;;15.30;1.00;;;;;;5022763;28;20428;-78
2023/08/29 02:10:17;;;;;;;32.37;3.30;;;15.40;1.00;;;;;;5022174;28;20208;-78
2023/08/29 02:12:59;;;;;;;33.20;3.30;;;15.40;1.00;;;;;;5035620;28;20446;-77
2023/08/29 02:15:36;;;;;;;33.30;3.20;;;;;;;;;;5032073;28;20430;-77
2023/08/29 02:18:17;;;;;;;37.37;3.77;;;15.40;1.00;;;;;;5033047;28;20500;-77
2023/08/29 02:21:00;;;;;;;34.40;3.00;;;15.40;1.00;;;;;;5032450;28;20426;-77
2023/08/29 02:23:41;;;;;;;40.50;3.23;;;15.40;1.00;;;;;;5032366;28;20434;-77
2023/08/29 02:26:07;;;;;;;35.50;3.30;;;15.40;1.00;;;;;;5019601;28;20759;-80
2023/08/29 02:28:53;;;;;;;34.30;3.20;;;15.60;1.00;;;;;;5032912;28;20460;-80
2023/08/29 02:31:47;;;;;;;37.67;2.87;;;15.50;1.00;;;;;;5033295;28;20191;-80
2023/08/29 02:34:17;;;;;;;34.17;2.90;;;15.50;1.00;;;;;;5022950;28;20469;-80
2023/08/29 02:36:53;;;;;;;37.50;3.00;;;15.50;1.00;;;;;;5025846;28;20420;-81
2023/08/29 02:39:23;;;;;;;39.00;2.90;;;15.50;1.00;;;;;;5032851;28;20853;-79
2023/08/29 02:41:53;;;;;;;36.93;3.20;;;15.60;1.00;;;;;;5034103;28;20977;-78
2023/08/29 02:44:19;;;;;;;42.83;3.90;;;15.50;1.00;;;;;;5031633;28;20450;-78
2023/08/29 02:46:44;;;;;;;37.13;2.97;;;15.50;1.00;;;;;;5020433;28;20471;-77
2023/08/29 02:49:10;;;;;;;37.97;3.07;;;15.60;1.00;;;;;;5031728;28;20206;-78
2023/08/29 02:51:36;;;;;;;33.43;2.60;;;15.60;1.00;;;;;;5021258;28;20242;-77
2023/08/29 02:54:05;;;;;;;32.20;2.50;;;15.60;1.00;;;;;;5034732;28;20190;-77
2023/08/29 02:56:31;;;;;;;37.53;3.03;;;15.50;1.00;;;;;;5033861;28;20189;-78
2023/08/29 02:58:59;;;;;;;33.80;3.23;;;15.60;1.00;;;;;;5034282;28;20415;-78
2023/08/29 03:01:29;;;;;;;33.03;2.90;;;15.60;1.00;;;;;;5032880;28;20193;-78
2023/08/29 03:04:11;;;;;;;38.07;3.00;;;15.50;1.00;;;;;;5022857;28;20482;-77
2023/08/29 03:06:37;;;;;;;34.47;2.90;;;15.60;1.00;;;;;;5028732;28;20380;-78
2023/08/29 03:09:12;;;;;;;33.07;2.77;;;15.50;1.00;;;;;;5027830;28;20536;-78
2023/08/29 03:11:48;;;;;;;40.23;3.00;;;15.60;1.00;;;;;;5025823;28;20203;-78
2023/08/29 03:14:47;;;;;;;35.27;2.83;;;15.50;1.00;;;;;;5029722;28;20832;-78
2023/08/29 03:17:44;;;;;;;32.07;2.80;;;15.50;1.00;;;;;;5030681;28;20438;-77
2023/08/29 03:20:38;;;;;;;42.27;2.97;;;15.50;1.00;;;;;;5033408;28;20442;-77
2023/08/29 03:23:53;;;;;;;33.97;2.60;;;15.50;1.00;;;;;;5034137;28;20942;-78
2023/08/29 03:26:23;;;;;;;35.10;2.93;;;15.50;1.00;;;;;;5026278;28;20539;-81
2023/08/29 03:29:11;;;;;;;38.43;2.90;;;15.40;1.00;;;;;;5025969;28;20804;-81
2023/08/29 03:31:53;;;;;;;32.30;2.80;;;15.40;1.00;;;;;;5018898;28;20450;-81
2023/08/29 03:34:23;;;;;;;39.77;3.07;;;15.40;1.00;;;;;;5024667;28;20775;-81
2023/08/29 03:36:59;;;;;;;33.73;2.87;;;15.80;1.00;;;;;;5027610;28;20853;-81
2023/08/29 03:39:35;;;;;;;34.17;2.93;;;15.60;1.00;;;;;;5014778;28;20436;-81
2023/08/29 03:42:53;;;;;;;34.27;2.73;;;15.40;1.00;;;;;;5028074;28;20450;-78
2023/08/29 03:45:35;;;;;;;32.40;2.60;;;15.50;1.00;;;;;;5029616;28;20470;-78
2023/08/29 03:48:06;;;;;;;35.27;2.47;;;15.50;1.00;;;;;;5030029;28;20426;-78
2023/08/29 03:50:35;;;;;;;40.30;2.73;;;15.50;1.00;;;;;;5029149;28;20446;-77
2023/08/29 03:53:47;;;;;;;32.73;2.80;;;15.50;1.00;;;;;;5030729;28;20411;-78
2023/08/29 03:56:23;;;;;;;34.97;2.67;;;15.50;1.00;;;;;;5020977;28;20460;-81
2023/08/29 03:59:05;;;;;;;31.90;2.30;;;15.40;1.00;;;;;;5022199;28;20736;-81
2023/08/29 04:01:41;;;;;;;37.57;2.50;;;15.50;1.00;;;;;;5018032;28;20440;-81
2023/08/29 04:04:29;;;;;;;32.37;2.50;;;15.40;1.00;;;;;;5022297;28;20805;-80
2023/08/29 04:07:05;;;;;;;34.10;2.57;;;15.40;1.00;;;;;;5025194;28;20425;-81
2023/08/29 04:09:59;;;;;;;35.20;2.63;;;15.30;1.00;;;;;;5018800;28;20441;-81
2023/08/29 04:12:29;;;;;;;32.80;2.77;;;15.30;1.00;;;;;;5034027;28;20438;-81
2023/08/29 04:15:06;;;;;;;35.30;2.63;;;15.20;1.00;;;;;;5026768;28;20448;-81
2023/08/29 04:17:31;;;;;;;34.47;2.60;;;15.20;1.00;;;;;;5032663;28;20409;-81
2023/08/29 04:20:12;;;;;;;38.37;3.27;;;15.20;1.00;;;;;;5026629;28;20434;-81
2023/08/29 04:23:03;;;;;;;34.43;2.73;;;15.20;1.00;;;;;;5030749;28;20551;-81
2023/08/29 04:25:30;;;;;;;33.03;2.53;;;15.30;1.00;;;;;;5025270;28;20435;-81
2023/08/29 04:28:05;;;;;;;35.30;3.10;;;15.20;1.00;;;;;;5033713;28;20389;-81
2023/08/29 04:30:31;;;;;;;32.00;2.70;;;15.20;1.00;;;;;;5029009;28;20443;-81
2023/08/29 04:32:59;;;;;;;35.40;3.07;;;15.20;1.00;;;;;;5026135;28;20417;-81
2023/08/29 04:35:35;;;;;;;37.13;2.77;;;15.20;1.00;;;;;;5028604;28;20422;-81
2023/08/29 04:41:23;;;;;;;31.30;2.50;;;15.20;1.00;;;;;;5024498;28;20940;-81
2023/08/29 04:44:41;;;;;;;35.00;2.50;;;15.20;1.00;;;;;;5027862;28;20428;-82
2023/08/29 04:47:17;;;;;;;35.50;2.87;;;15.20;1.00;;;;;;5025268;28;20451;-82
2023/08/29 04:49:43;;;;;;;37.33;2.67;;;15.20;1.00;;;;;;5021856;28;20471;-82
2023/08/29 04:55:33;;;;;;;34.80;2.73;;;15.20;1.00;;;;;;5014382;28;20226;-81
2023/08/29 04:58:35;;;;;;;32.00;2.90;;;15.20;1.00;;;;;;5025348;28;20927;-82
2023/08/29 05:01:01;;;;;;;34.20;2.63;;;15.20;1.00;;;;;;5026510;28;20514;-82
2023/08/29 05:03:27;;;;;;;41.30;3.30;;;15.40;1.00;;;;;;5024852;28;20484;-82
2023/08/29 05:06:05;;;;;;;38.90;3.67;;;15.30;1.00;;;;;;5044403;28;20213;-82
2023/08/29 05:08:34;;;;;;;34.80;3.20;;;15.40;1.00;;;;;;5035827;28;21032;-81
2023/08/29 05:11:29;;;;;;;33.27;2.90;;;15.50;1.00;;;;;;5025780;28;20435;-82
2023/08/29 05:13:55;;;;;;;45.83;3.33;;;15.50;1.00;;;;;;5027738;28;20421;-82
2023/08/29 05:16:21;;;;;;;34.50;2.63;;;15.70;1.00;;;;;;5017450;28;20427;-83
2023/08/29 05:18:46;;;;;;;34.10;3.00;;;15.70;1.00;;;;;;5022982;28;20189;-83
2023/08/29 05:21:23;;;;;;;35.93;2.83;;;15.70;1.00;;;;;;5021215;28;20189;-83
2023/08/29 05:24:00;;;;;;;34.20;3.10;;;15.70;1.00;;;;;;5029514;28;20235;-82
2023/08/29 05:26:30;;;;;;;35.60;3.20;;;15.70;1.00;;;;;;5028486;28;20390;-82
2023/08/29 05:29:41;;;;;;;37.63;3.30;;;15.80;1.00;;;;;;5030653;28;20525;-83
2023/08/29 05:35:47;;;;;;;35.80;2.90;;;15.80;1.00;;;;;;5023243;28;20430;-83
2023/08/29 05:38:17;;;;;;;42.27;2.90;;;15.80;1.00;;;;;;5030875;28;20409;-83
2023/08/29 05:40:54;;;;;;;37.03;2.70;;;15.80;1.00;;;;;;5028249;28;20790;-82
2023/08/29 05:44:05;;;;;;;33.40;2.40;;;16.00;1.00;;;;;;5018279;28;20459;-80
2023/08/29 05:46:35;;;;;;;35.57;3.07;;;15.90;1.00;;;;;;5022106;28;20464;-80
2023/08/29 05:49:21;;;;;;;32.40;2.40;;;16.00;1.00;;;;;;5033877;28;20434;-80
2023/08/29 05:51:46;;;;;;;34.30;3.13;;;16.00;1.00;;;;;;5033202;28;20448;-80
2023/08/29 05:57:53;;;;;;;35.90;2.77;;;16.20;1.00;;;;;;5027206;28;20183;-83
2023/08/29 06:00:41;;;;;;;34.80;2.40;;;16.30;1.00;;;;;;5028888;28;20411;-82
2023/08/29 06:03:29;;;;;;;34.73;2.83;;;16.40;1.00;;;;;;5027634;28;20398;-83
2023/08/29 06:05:59;;;;;;;41.50;2.67;;;16.40;1.00;;;;;;5036235;28;20422;-82
2023/08/29 06:08:41;;;;;;;38.60;2.90;;;16.40;1.00;;;;;;5032172;28;20411;-83
2023/08/29 06:11:18;;;;;;;34.80;2.80;;;16.40;1.00;;;;;;5027072;28;20449;-82
2023/08/29 06:17:05;;;;;;;35.27;2.67;;;16.60;1.00;;;;;;5028680;28;20447;-82
2023/08/29 06:19:31;;;;;;;33.30;2.70;;;16.70;1.00;;;;;;5034782;28;20408;-82
2023/08/29 06:21:59;;;;;;;38.37;2.90;;;16.70;1.00;;;;;;5022702;28;20186;-82
2023/08/29 06:25:05;;;;;;;36.43;3.10;;;16.80;1.00;;;;;;5035821;28;20186;-82
2023/08/29 06:27:32;;;;;;;36.90;2.90;;;16.80;1.00;;;;;;5022312;28;20410;-80
2023/08/29 06:30:00;;;;;;;35.70;2.60;;;16.90;1.00;;;;;;5035384;28;20926;-81
2023/08/29 06:32:35;;;;;;;34.90;2.40;;;16.90;1.00;;;;;;5021234;28;20761;-80
2023/08/29 06:35:23;;;;;;;36.77;2.80;;;17.00;1.00;;;;;;5022927;28;20438;-80
2023/08/29 06:37:59;;;;;;;34.53;2.43;;;17.10;1.00;;;;;;5029764;28;20400;-80
2023/08/29 06:40:35;;;;;;;41.13;2.90;;;17.10;1.00;;;;;;5030262;28;20423;-80
2023/08/29 06:43:17;;;;;;;35.00;2.50;;;17.20;1.00;;;;;;5030072;28;20503;-80
2023/08/29 06:45:53;;;;;;;34.90;2.37;;;17.20;1.00;;;;;;5026394;28;20436;-80
2023/08/29 06:48:19;;;;;;;35.15;2.40;;;17.30;1.00;;;;;;5027112;28;20437;-81
2023/08/29 06:51:12;;;;;;;36.80;2.83;;;17.30;1.00;;;;;;5032784;28;20468;-80
2023/08/29 06:54:05;;;;;;;36.33;2.70;;;17.50;1.00;;;;;;5031512;28;20249;-80
2023/08/29 06:56:59;;;;;;;34.17;2.50;;;17.60;1.00;;;;;;5018573;28;20465;-80
2023/08/29 06:59:41;;;;;;;34.17;2.40;;;17.60;1.00;;;;;;5018370;28;20441;-82
2023/08/29 07:02:17;;;;;;;45.60;2.80;;;17.80;1.00;;;;;;5015655;28;20442;-83
2023/08/29 07:05:05;;;;;;;40.13;2.63;;;17.90;1.00;;;;;;5027468;28;20426;-83
2023/08/29 07:07:47;;;;;;;36.63;2.50;;;17.90;1.00;;;;;;5029278;28;20413;-82
2023/08/29 07:10:18;;;;;;;34.00;2.03;;;18.00;1.00;;;;;;5022689;28;20982;-83
2023/08/29 07:12:53;;;;;;;39.50;2.40;;;18.10;1.00;;;;;;5024926;28;20796;-80
2023/08/29 07:15:23;;;;;;;48.60;3.93;;;18.20;1.00;;;;;;5027746;28;20777;-80
2023/08/29 07:17:53;;;;;;;36.63;2.60;;;18.30;1.00;;;;;;5021658;28;20409;-80
2023/08/29 07:20:19;;;;;;;36.13;2.43;;;18.30;1.00;;;;;;5025167;28;20529;-80
2023/08/29 07:23:05;;;;;;;34.27;2.30;;;18.30;1.00;;;;;;5032217;28;20509;-80
2023/08/29 07:25:47;;;;;;;33.67;2.53;;;18.50;1.00;;;;;;5025569;28;20822;-80
2023/08/29 07:31:35;;;;;;;33.80;1.93;;;18.60;1.00;;;;;;5017270;28;20434;-80
2023/08/29 07:34:41;;;;;;;36.27;2.27;;;18.70;1.00;;;;;;5027457;28;20415;-80
2023/08/29 07:37:35;;;;;;;34.73;2.17;;;18.90;1.00;;;;;;5020008;28;20425;-80
2023/08/29 07:40:01;;;;;;;32.30;2.13;;;19.10;1.00;;;;;;5031515;28;20466;-80
2023/08/29 07:42:29;;;;;;;36.10;2.20;;;19.20;1.00;;;;;;5042999;28;20410;-82
2023/08/29 07:44:55;;;;;;;32.80;2.20;;;19.20;1.00;;;;;;5015685;28;20231;-82
2023/08/29 07:47:21;;;;;;;34.03;2.53;;;19.50;1.00;;;;;;5026177;28;20443;-83
2023/08/29 07:49:46;;;;;;;33.73;1.80;;;19.60;1.00;;;;;;5019191;28;20212;-84
2023/08/29 07:52:17;;;;;;;35.07;2.30;;;19.70;1.00;;;;;;5027999;28;20189;-83
2023/08/29 07:54:47;;;;;;;32.00;1.67;;;19.80;1.00;;;;;;5026271;28;20249;-83
2023/08/29 07:57:23;;;;;;;33.13;1.70;;;20.00;1.00;;;;;;5021456;28;20508;-83
2023/08/29 08:00:23;;;;;;;35.17;1.73;;;20.10;1.00;;;;;;5024416;28;20408;-82
2023/08/29 08:03:11;;;;;;;36.73;2.00;;;20.20;1.00;;;;;;5031992;28;20443;-81
2023/08/29 08:05:37;;;;;;;31.47;1.40;;;20.30;1.00;;;;;;5014949;28;20409;-80
2023/08/29 08:08:17;;;;;;;32.43;2.23;;;20.40;1.00;;;;;;5033755;28;20578;-81
2023/08/29 08:10:53;;;;;;;38.03;2.03;;;20.60;1.00;;;;;;5030846;28;20528;-80
2023/08/29 08:13:23;;;;;;;32.10;1.70;;;20.80;1.00;;;;;;5024411;28;20452;-80
2023/08/29 08:15:54;;;;;;;31.90;1.90;;;20.90;1.00;;;;;;5027705;28;20787;-80
2023/08/29 08:18:23;;;;;;;31.07;1.60;;;20.80;1.00;;;;;;5024327;28;20442;-80
2023/08/29 08:20:54;;;;;;;34.77;1.57;;;21.00;1.00;;;;;;5023372;28;20826;-81
2023/08/29 08:24:07;;;;;;;33.67;1.80;;;21.10;1.00;;;;;;5028821;28;20452;-81
2023/08/29 08:26:35;;;;;;;33.80;1.60;;;21.30;1.00;;;;;;5033686;28;20446;-81
2023/08/29 08:29:03;;;;;;;32.03;1.40;;;21.70;1.00;;;;;;5020910;28;21031;-83
2023/08/29 08:31:30;;;;;;;32.53;1.57;;;21.70;1.00;;;;;;5012890;28;20410;-83
2023/08/29 08:33:59;;;;;;;31.07;1.63;;;21.90;1.00;;;;;;5030890;28;20472;-83
2023/08/29 08:36:59;;;;;;;32.00;1.60;;;22.10;1.00;;;;;;5026354;28;20434;-83
2023/08/29 08:43:12;;;;;;;32.00;1.60;;;22.50;1.00;;;;;;5020411;28;20767;-84
2023/08/29 08:45:43;;;;;;;30.57;1.60;;;22.60;1.00;;;;;;5024352;28;20455;-81
2023/08/29 08:48:08;;;;;;;32.17;1.60;;;22.60;1.00;;;;;;5029923;28;20466;-81
2023/08/29 08:50:54;;;;;;;31.20;1.77;;;22.70;1.00;;;;;;5025644;28;20466;-81
2023/08/29 08:53:30;;;;;;;32.10;1.90;;;22.80;1.00;;;;;;5013716;28;20204;-81
2023/08/29 08:56:17;;;;;;;31.20;1.77;;;22.80;1.00;;;;;;5026769;28;20913;-81
2023/08/29 08:58:48;;;;;;;34.57;1.83;;;22.80;1.00;;;;;;5028780;28;20431;-82
2023/08/29 09:01:17;;;;;;;32.70;1.50;;;22.90;1.00;;;;;;5029054;28;20473;-81
2023/08/29 09:04:00;;;;;;;35.20;1.90;;;22.90;1.00;;;;;;5021544;28;20791;-81
2023/08/29 09:06:38;;;;;;;33.83;1.80;;;22.90;1.00;;;;;;5022911;28;20432;-81
2023/08/29 09:09:29;;;;;;;33.87;1.40;;;22.90;1.00;;;;;;5030503;28;20822;-81
2023/08/29 09:12:16;;;;;;;34.50;1.80;;;22.70;1.00;;;;;;5016608;28;20858;-80
2023/08/29 09:14:54;;;;;;;34.40;1.43;;;22.70;1.00;;;;;;5024622;28;20428;-81
2023/08/29 09:17:33;;;;;;;38.33;1.70;;;;;;;;;;5031920;28;20456;-81
2023/08/29 09:20:07;;;;;;;30.67;1.30;;;22.90;1.00;;;;;;5014272;28;20427;-81
2023/08/29 09:23:00;;;;;;;34.83;1.60;;;23.10;1.00;;;;;;5027819;28;20427;-81
2023/08/29 09:25:36;;;;;;;30.20;1.30;;;23.40;1.00;;;;;;5032730;28;20415;-81
2023/08/29 09:28:11;;;;;;;31.90;1.50;;;23.40;1.00;;;;;;5022776;28;20456;-81
2023/08/29 09:30:41;;;;;;;33.57;1.87;;;23.40;1.00;;;;;;5022446;28;20542;-84
2023/08/29 09:33:08;;;;;;;31.97;1.30;;;23.50;1.00;;;;;;5028117;28;20946;-84
2023/08/29 09:35:53;;;;;;;31.30;1.40;;;23.60;1.00;;;;;;5025822;28;20428;-84
2023/08/29 09:38:29;;;;;;;35.83;1.30;;;23.60;1.00;;;;;;5026318;28;20433;-84
2023/08/29 09:41:14;;;;;;;30.60;1.33;;;23.60;1.00;;;;;;5031986;28;20916;-84
2023/08/29 09:43:59;;;;;;;34.80;1.60;;;23.60;1.00;;;;;;5023512;28;20499;-84
2023/08/29 09:46:48;;;;;;;34.53;1.40;;;23.80;1.00;;;;;;5020108;28;20429;-82
2023/08/29 09:49:15;;;;;;;30.07;1.20;;;24.00;1.00;;;;;;5029946;28;20902;-81
2023/08/29 09:51:43;;;;;;;30.00;1.40;;;24.10;1.00;;;;;;5023137;28;21156;-81
2023/08/29 09:54:47;;;;;;;33.57;1.30;;;24.10;1.00;;;;;;5031802;28;20532;-81
2023/08/29 09:57:21;;;;;;;30.47;1.50;;;23.90;1.00;;;;;;5024377;28;20990;-81
2023/08/29 10:00:19;;;;;;;31.47;1.40;;;23.80;1.00;;;;;;5021529;28;20417;-84
2023/08/29 10:03:11;;;;;;;31.97;1.40;;;23.70;1.00;;;;;;5035776;28;20990;-85
2023/08/29 10:05:50;;;;;;;30.63;1.20;;;23.40;1.00;;;;;;5035458;28;20524;-84
2023/08/29 10:11:38;;;;;;;30.90;1.40;;;22.60;1.00;;;;;;5029336;28;20518;-84
2023/08/29 10:14:13;;;;;;;31.50;1.50;;;22.20;1.00;;;;;;5028479;28;20446;-85
2023/08/29 10:16:39;;;;;;;32.40;1.40;;;22.10;1.00;;;;;;5022308;28;20382;-84
2023/08/29 10:19:05;;;;;;;32.87;1.30;;;21.90;1.00;;;;;;5024736;28;20419;-84
2023/08/29 10:21:31;;;;;;;32.10;1.43;;;21.80;1.00;;;;;;5015193;28;20644;-84
2023/08/29 10:23:58;;;;;;;34.90;1.87;;;21.70;1.00;;;;;;5016459;28;20186;-83
2023/08/29 10:26:25;;;;;;;33.53;1.47;;;21.60;1.00;;;;;;5016699;28;20199;-83
2023/08/29 10:29:06;;;;;;;36.20;1.50;;;21.60;1.00;;;;;;5026856;28;21089;-83
2023/08/29 10:31:34;;;;;;;44.80;1.50;;;21.50;1.00;;;;;;5027195;28;20915;-80
2023/08/29 10:34:19;;;;;;;34.07;2.57;;;21.40;1.00;;;;;;5021194;28;20430;-80
2023/08/29 10:36:46;;;;;;;33.10;1.77;;;21.20;1.00;;;;;;5027896;28;20990;-80
2023/08/29 10:39:30;;;;;;;38.13;2.17;;;21.00;1.00;;;;;;5021537;28;20411;-80
2023/08/29 10:42:29;;;;;;;36.37;2.20;;;20.70;1.00;;;;;;5015805;28;20761;-83
2023/08/29 10:45:19;;;;;;;32.90;1.80;;;20.60;1.00;;;;;;5030137;28;20414;-83
2023/08/29 10:47:48;;;;;;;34.87;1.97;;;20.50;1.00;;;;;;5031395;28;20430;-83
2023/08/29 10:50:30;;;;;;;35.63;2.53;;;;;;;;;;5025599;28;20475;-85
2023/08/29 10:53:22;;;;;;;37.77;2.43;;;19.90;1.00;;;;;;5028982;28;20913;-84
2023/08/29 10:56:31;;;;;;;37.50;2.73;;;19.90;1.00;;;;;;5028372;28;20467;-84
2023/08/29 10:59:35;;;;;;;38.07;2.70;;;20.00;1.00;;;;;;5029358;28;20427;-83
2023/08/29 11:02:47;;;;;;;36.63;2.43;;;20.20;1.00;;;;;;5016550;28;20401;-84
2023/08/29 11:05:38;;;;;;;33.67;2.30;;;20.30;1.00;;;;;;5034751;28;20436;-83
2023/08/29 11:08:23;;;;;;;39.63;3.27;;;20.40;1.00;;;;;;5025281;28;20424;-84
2023/08/29 11:11:21;;;;;;;38.70;3.20;;;20.40;1.00;;;;;;5021568;28;20941;-80
2023/08/29 11:14:08;;;;;;;36.47;2.90;;;20.50;1.00;;;;;;4980186;28;20505;-80
2023/08/29 11:16:37;;;;;;;35.73;2.70;;;20.30;1.00;;;;;;4993588;28;20417;-85
2023/08/29 11:19:18;;;;;;;37.83;2.50;;;20.30;1.00;;;;;;4975485;28;20957;-82
2023/08/29 11:21:45;;;;;;;34.90;2.30;;;20.20;1.00;;;;;;4987581;28;20445;-83
2023/08/29 11:27:55;;;;;;;41.00;2.53;;;20.20;1.00;;;;;;4993289;28;20408;-86
2023/08/29 11:30:47;;;;;;;35.30;2.70;;;20.20;1.00;;;;;;4976010;28;20569;-85
2023/08/29 11:33:19;;;;;;;33.67;2.50;;;20.30;1.00;;;;;;4975839;28;20430;-78
2023/08/29 11:35:48;;;;;;;40.17;2.70;;;20.50;1.00;;;;;;4974783;28;20491;-81
2023/08/29 11:38:31;;;;;;;35.50;2.80;;;20.60;1.00;;;;;;4981044;28;20446;-82
2023/08/29 11:40:58;;;;;;;35.30;2.60;;;20.80;1.00;;;;;;4986467;28;20405;-74
2023/08/29 11:43:25;;;;;;;36.03;2.70;;;21.00;1.00;;;;;;4986333;28;20440;-76
2023/08/29 11:46:13;;;;;;;38.90;2.50;;;21.00;1.00;;;;;;4986484;28;20442;-76
2023/08/29 11:48:39;;;;;;;33.30;2.40;;;21.10;1.00;;;;;;4953868;29;20481;-76
2023/08/29 11:51:06;;;;;;;33.53;1.83;;;21.20;1.00;;;;;;4987715;28;20520;-75
2023/08/29 11:53:36;;;;;;;38.40;2.20;;;21.40;1.00;;;;;;4996529;28;20188;-76
2023/08/29 11:56:09;;;;;;;33.20;2.30;;;21.40;1.00;;;;;;4993137;28;20422;-76
2023/08/29 11:58:37;;;;;;;39.47;2.33;;;21.60;1.00;;;;;;5003529;28;21025;-76
2023/08/29 12:01:10;;;;;;;34.40;2.20;;;21.70;1.00;;;;;;4992982;28;20511;-76
2023/08/29 12:03:39;;;;;;;33.13;2.30;;;21.60;1.00;;;;;;4983875;28;20432;-76
2023/08/29 12:06:13;;;;;;;32.93;2.10;;;21.40;1.00;;;;;;4989240;28;20431;-76
2023/08/29 12:08:43;;;;;;;34.97;2.07;;;21.50;1.00;;;;;;4984863;28;20409;-76
2023/08/29 12:11:12;;;;;;;41.90;1.80;;;21.60;1.00;;;;;;4991543;28;20424;-76
2023/08/29 12:13:59;;;;;;;32.03;1.93;;;21.60;1.00;;;;;;4992301;28;20446;-76
2023/08/29 12:16:26;;;;;;;33.20;2.00;;;21.60;1.00;;;;;;4992894;28;20402;-80
2023/08/29 12:19:06;;;;;;;35.10;2.20;;;21.60;1.00;;;;;;4997180;28;20411;-80
2023/08/29 12:21:36;;;;;;;33.17;2.07;;;21.60;1.00;;;;;;5025006;28;20423;-80
2023/08/29 12:24:11;;;;;;;33.23;1.73;;;21.60;1.00;;;;;;5023231;28;20440;-80
2023/08/29 12:26:41;;;;;;;32.13;1.77;;;21.60;1.00;;;;;;5027565;28;20504;-80
2023/08/29 12:29:23;;;;;;;32.97;1.93;;;21.60;1.00;;;;;;5024955;28;20825;-80
2023/08/29 12:31:50;;;;;;;33.07;1.90;;;21.60;1.00;;;;;;5026563;28;20445;-80
2023/08/29 12:34:17;;;;;;;32.90;1.80;;;21.60;1.00;;;;;;5031885;28;20945;-80
2023/08/29 12:36:48;;;;;;;33.43;1.80;;;21.50;1.00;;;;;;5030471;28;20917;-80
2023/08/29 12:39:17;;;;;;;41.23;2.23;;;21.50;1.00;;;;;;5026467;28;20807;-80
2023/08/29 12:41:59;;;;;;;37.00;2.13;;;21.60;1.00;;;;;;5026822;28;20992;-80
2023/08/29 12:44:35;;;;;;;32.67;1.87;;;21.60;1.00;;;;;;5031802;28;20791;-80
2023/08/29 12:47:18;;;;;;;33.67;2.33;;;21.60;1.00;;;;;;5018721;28;21075;-80
2023/08/29 12:49:43;;;;;;;32.40;2.17;;;21.70;1.00;;;;;;5019443;28;20851;-80
2023/08/29 12:52:10;;;;;;;39.13;2.43;;;21.70;1.00;;;;;;5019003;28;20997;-80
2023/08/29 12:54:36;;;;;;;32.60;2.10;;;21.70;1.00;;;;;;5029151;28;20549;-80
2023/08/29 12:57:03;;;;;;;43.97;2.50;;;21.70;1.00;;;;;;5025416;28;20437;-80
2023/08/29 12:59:29;;;;;;;34.33;2.30;;;21.60;1.00;;;;;;5017810;28;21048;-80
2023/08/29 13:02:12;;;;;;;32.87;2.10;;;21.70;1.00;;;;;;5033159;28;20428;-80
2023/08/29 13:04:53;;;;;;;34.80;2.37;;;21.70;1.00;;;;;;5023483;28;20416;-80
2023/08/29 13:07:36;;;;;;;33.23;2.03;;;21.70;1.00;;;;;;5025767;28;20978;-83
2023/08/29 13:10:12;;;;;;;35.33;2.47;;;21.90;1.00;;;;;;5016145;28;21089;-82
2023/08/29 13:12:42;;;;;;;34.30;2.10;;;21.70;1.00;;;;;;5024643;28;20437;-80
2023/08/29 13:15:18;;;;;;;34.30;2.40;;;21.80;1.00;;;;;;5030876;28;20431;-81
2023/08/29 13:18:00;;;;;;;32.27;2.67;;;22.00;1.00;;;;;;5033347;28;20444;-80
2023/08/29 13:20:53;;;;;;;33.40;2.70;;;22.00;1.00;;;;;;5021172;28;21036;-80
2023/08/29 13:23:32;;;;;;;35.87;2.60;;;21.80;1.00;;;;;;5024581;28;20427;-79
2023/08/29 13:26:00;;;;;;;34.60;2.63;;;21.70;1.00;;;;;;5034505;28;20409;-81
2023/08/29 13:28:36;;;;;;;32.70;2.30;;;21.80;1.00;;;;;;5029532;28;20439;-81
2023/08/29 13:31:07;;;;;;;35.93;2.90;;;21.90;1.00;;;;;;5017617;28;20417;-80
2023/08/29 13:33:36;;;;;;;32.57;2.40;;;21.80;1.00;;;;;;5021238;28;20430;-81
2023/08/29 13:36:24;;;;;;;37.03;2.30;;;21.80;1.00;;;;;;5034535;28;20428;-81
2023/08/29 13:39:23;;;;;;;35.57;2.10;;;21.70;1.00;;;;;;5034591;28;21025;-81
2023/08/29 13:41:54;;;;;;;33.50;2.37;;;21.90;1.00;;;;;;5025026;28;20483;-81
2023/08/29 13:44:30;;;;;;;34.00;2.53;;;22.00;1.00;;;;;;5023011;28;20425;-81
2023/08/29 13:46:56;;;;;;;38.00;2.27;;;22.00;1.00;;;;;;5030707;28;20447;-81
2023/08/29 13:49:24;;;;;;;32.63;1.87;;;22.20;1.00;;;;;;5034239;28;20502;-81
2023/08/29 13:51:50;;;;;;;32.10;1.87;;;22.40;1.00;;;;;;5029214;28;20469;-81
2023/08/29 13:54:15;;;;;;;42.23;2.10;;;22.50;1.00;;;;;;5036110;28;20926;-81
2023/08/29 13:56:44;;;;;;;32.37;1.70;;;22.60;1.00;;;;;;5030076;28;20176;-82
2023/08/29 13:59:24;;;;;;;30.73;1.60;;;22.80;1.00;;;;;;5033080;28;20189;-79
2023/08/29 14:01:54;;;;;;;33.30;1.60;;;23.10;1.00;;;;;;5021630;28;20932;-79
2023/08/29 14:04:20;;;;;;;31.80;2.00;;;23.20;1.00;;;;;;5023709;28;20437;-79
2023/08/29 14:06:46;;;;;;;31.37;1.73;;;23.10;1.00;;;;;;5029246;28;20438;-79
2023/08/29 14:09:53;;;;;;;30.80;1.60;;;22.90;1.00;;;;;;5034712;28;20465;-78
2023/08/29 14:12:19;;;;;;;32.07;2.00;;;22.70;1.00;;;;;;5022368;28;20471;-79